createdAt,value
2023-04-02T00:01:01.990Z,2.30
2023-04-02T00:03:59.316Z,2.25
2023-04-02T00:06:46.400Z,1.35
2023-04-02T00:09:36.774Z,1.40
2023-04-02T00:12:24.032Z,0.98
2023-04-02T00:15:12.603Z,1.00
2023-04-02T00:18:00.006Z,2.10
2023-04-02T00:20:50.943Z,1.00
2023-04-02T00:23:42.707Z,1.70
2023-04-02T00:26:36.768Z,1.98
2023-04-02T00:29:23.642Z,1.33
2023-04-02T00:32:18.004Z,2.47
2023-04-02T00:35:13.639Z,1.63
2023-04-02T00:38:00.667Z,1.45
2023-04-02T00:40:47.636Z,1.95
2023-04-02T00:43:38.419Z,2.25
2023-04-02T00:46:32.198Z,0.80
2023-04-02T00:49:32.678Z,1.23
2023-04-02T00:52:25.031Z,2.15
2023-04-02T00:55:38.997Z,0.98
2023-04-02T00:58:35.067Z,1.95
2023-04-02T01:01:28.417Z,3.80
2023-04-02T01:04:28.837Z,1.27
2023-04-02T01:07:15.949Z,1.20
2023-04-02T01:10:28.994Z,1.75
2023-04-02T01:13:57.886Z,2.65
2023-04-02T01:19:46.482Z,1.75
2023-04-02T01:23:02.525Z,1.73
2023-04-02T01:26:05.525Z,1.15
2023-04-02T01:29:02.153Z,1.58
2023-04-02T01:31:49.905Z,1.88
2023-04-02T01:34:37.900Z,1.10
2023-04-02T01:37:46.761Z,2.42
2023-04-02T01:40:51.422Z,2.35
2023-04-02T01:43:53.076Z,1.38
2023-04-02T01:46:44.905Z,1.17
2023-04-02T01:49:31.787Z,2.72
2023-04-02T01:52:26.974Z,1.13
2023-04-02T01:55:17.642Z,1.65
2023-04-02T01:58:04.727Z,2.30
2023-04-02T02:01:00.103Z,2.10
2023-04-02T02:03:47.147Z,1.88
2023-04-02T02:06:33.994Z,2.70
2023-04-02T02:09:24.150Z,1.70
2023-04-02T02:12:15.323Z,1.33
2023-04-02T02:15:02.496Z,2.58
2023-04-02T02:17:49.949Z,2.05
2023-04-02T02:20:38.971Z,1.65
2023-04-02T02:23:28.823Z,2.45
2023-04-02T02:26:16.080Z,1.65
2023-04-02T02:29:04.173Z,2.13
2023-04-02T02:31:54.098Z,2.33
2023-04-02T02:34:47.567Z,1.30
2023-04-02T02:37:41.016Z,1.42
2023-04-02T02:40:34.421Z,1.85
2023-04-02T02:43:21.382Z,2.63
2023-04-02T02:46:11.292Z,1.92
2023-04-02T02:48:59.819Z,1.20
2023-04-02T02:51:52.535Z,2.55
2023-04-02T02:54:43.015Z,2.15
2023-04-02T02:57:33.112Z,1.27
2023-04-02T03:00:20.534Z,2.33
2023-04-02T03:03:15.359Z,1.48
2023-04-02T03:06:08.505Z,2.35
2023-04-02T03:09:05.090Z,1.98
2023-04-02T03:12:22.706Z,2.72
2023-04-02T03:15:27.923Z,1.75
2023-04-02T03:18:33.473Z,1.38
2023-04-02T03:21:37.335Z,1.95
2023-04-02T03:24:35.873Z,3.83
2023-04-02T03:27:26.720Z,3.55
2023-04-02T03:30:29.400Z,1.98
2023-04-02T03:33:28.779Z,3.22
2023-04-02T03:36:35.712Z,2.33
2023-04-02T03:39:42.816Z,1.83
2023-04-02T03:42:39.374Z,2.67
2023-04-02T03:45:41.785Z,1.80
2023-04-02T03:48:39.322Z,1.77
2023-04-02T03:51:59.954Z,1.70
2023-04-02T03:54:53.129Z,2.63
2023-04-02T03:58:04.477Z,2.83
2023-04-02T04:01:12.470Z,2.35
2023-04-02T04:04:06.987Z,2.67
2023-04-02T04:06:56.613Z,1.95
2023-04-02T04:09:45.971Z,2.28
2023-04-02T04:12:35.915Z,2.17
2023-04-02T04:15:30.279Z,2.55
2023-04-02T04:18:50.075Z,1.88
2023-04-02T04:21:39.963Z,1.55
2023-04-02T04:24:27.542Z,3.13
2023-04-02T04:27:34.654Z,1.92
2023-04-02T04:30:42.462Z,1.20
2023-04-02T04:33:34.638Z,2.58
2023-04-02T04:36:27.817Z,1.58
2023-04-02T04:39:18.843Z,2.35
2023-04-02T04:42:06.793Z,2.08
2023-04-02T04:44:58.242Z,3.47
2023-04-02T04:47:54.024Z,2.15
2023-04-02T04:50:52.905Z,1.88
2023-04-02T04:53:48.491Z,2.88
2023-04-02T04:56:35.342Z,3.28
2023-04-02T04:59:32.442Z,2.13
2023-04-02T05:02:26.714Z,3.85
2023-04-02T05:05:19.651Z,2.30
2023-04-02T05:08:28.285Z,1.38
2023-04-02T05:11:23.428Z,1.80
2023-04-02T05:14:25.715Z,2.40
2023-04-02T05:17:46.576Z,2.72
2023-04-02T05:20:40.745Z,2.40
2023-04-02T05:23:30.078Z,2.40
2023-04-02T05:26:25.783Z,3.42
2023-04-02T05:29:21.560Z,1.75
2023-04-02T05:32:17.320Z,1.75
2023-04-02T05:35:06.622Z,3.45
2023-04-02T05:37:53.546Z,1.92
2023-04-02T05:40:44.584Z,3.97
2023-04-02T05:43:33.670Z,2.80
2023-04-02T05:46:27.397Z,3.28
2023-04-02T05:49:23.743Z,2.38
2023-04-02T05:52:32.643Z,2.53
2023-04-02T05:55:19.829Z,2.95
2023-04-02T05:58:34.596Z,4.30
2023-04-02T06:01:30.929Z,2.30
2023-04-02T06:04:26.171Z,3.17
2023-04-02T06:07:24.341Z,1.92
2023-04-02T06:10:18.514Z,3.47
2023-04-02T06:13:08.949Z,3.53
2023-04-02T06:15:56.333Z,3.30
2023-04-02T06:18:43.666Z,2.00
2023-04-02T06:21:31.745Z,4.90
2023-04-02T06:24:22.993Z,3.80
2023-04-02T06:27:12.039Z,3.75
2023-04-02T06:30:03.641Z,3.47
2023-04-02T06:32:50.838Z,2.53
2023-04-02T06:35:40.718Z,2.65
2023-04-02T06:38:30.084Z,3.20
2023-04-02T06:41:22.095Z,3.28
2023-04-02T06:44:19.903Z,3.20
2023-04-02T06:47:51.602Z,2.95
2023-04-02T06:51:02.242Z,3.28
2023-04-02T06:53:50.039Z,3.83
2023-04-02T06:56:42.537Z,2.75
2023-04-02T06:59:29.384Z,2.85
2023-04-02T07:02:35.945Z,3.45
2023-04-02T07:05:23.400Z,3.35
2023-04-02T07:08:10.295Z,3.83
2023-04-02T07:10:57.120Z,2.42
2023-04-02T07:13:44.581Z,3.83
2023-04-02T07:16:33.074Z,4.53
2023-04-02T07:19:22.042Z,3.17
2023-04-02T07:22:08.872Z,3.00
2023-04-02T07:24:55.917Z,3.47
2023-04-02T07:27:42.766Z,3.72
2023-04-02T07:30:29.875Z,3.72
2023-04-02T07:33:18.995Z,4.07
2023-04-02T07:38:53.211Z,3.30
2023-04-02T07:41:57.040Z,3.00
2023-04-02T07:44:43.904Z,4.38
2023-04-02T07:47:30.979Z,3.03
2023-04-02T07:50:19.085Z,4.57
2023-04-02T07:53:07.318Z,3.30
2023-04-02T07:55:54.479Z,3.07
2023-04-02T07:58:42.239Z,3.38
2023-04-02T08:01:29.797Z,3.72
2023-04-02T08:04:21.973Z,2.97
2023-04-02T08:07:08.883Z,3.75
2023-04-02T08:09:55.698Z,2.88
2023-04-02T08:12:45.422Z,3.25
2023-04-02T08:15:32.327Z,2.95
2023-04-02T08:18:22.597Z,3.47
2023-04-02T08:21:10.660Z,4.30
2023-04-02T08:23:57.584Z,2.67
2023-04-02T08:26:46.373Z,2.17
2023-04-02T08:29:34.421Z,3.92
2023-04-02T08:32:23.083Z,3.05
2023-04-02T08:35:12.792Z,2.55
2023-04-02T08:38:01.483Z,3.42
2023-04-02T08:40:54.802Z,4.00
2023-04-02T08:44:00.629Z,2.33
2023-04-02T08:47:04.452Z,2.78
2023-04-02T08:49:57.979Z,3.20
2023-04-02T08:52:46.192Z,3.05
2023-04-02T08:55:42.980Z,3.87
2023-04-02T08:58:43.795Z,2.53
2023-04-02T09:01:37.109Z,2.97
2023-04-02T09:04:25.702Z,2.75
2023-04-02T09:07:14.498Z,2.17
2023-04-02T09:10:01.782Z,2.80
2023-04-02T09:12:52.898Z,2.15
2023-04-02T09:15:40.665Z,2.35
2023-04-02T09:18:31.032Z,2.75
2023-04-02T09:21:21.035Z,2.55
2023-04-02T09:24:12.432Z,3.00
2023-04-02T09:26:59.404Z,3.13
2023-04-02T09:29:48.571Z,3.60
2023-04-02T09:35:50.913Z,2.28
2023-04-02T09:41:28.670Z,3.08
2023-04-02T09:44:26.762Z,3.33
2023-04-02T09:47:26.518Z,2.60
2023-04-02T09:50:23.377Z,2.85
2023-04-02T09:53:30.786Z,2.00
2023-04-02T09:56:25.607Z,2.40
2023-04-02T09:59:16.935Z,3.28
2023-04-02T10:02:05.586Z,2.80
2023-04-02T10:04:52.725Z,2.63
2023-04-02T10:07:42.978Z,3.03
2023-04-02T10:10:33.453Z,2.45
2023-04-02T10:13:32.568Z,3.33
2023-04-02T10:16:26.962Z,1.90
2023-04-02T10:19:32.524Z,2.55
2023-04-02T10:22:21.635Z,2.75
2023-04-02T10:25:14.956Z,2.65
2023-04-02T10:28:17.399Z,3.08
2023-04-02T10:31:20.133Z,2.67
2023-04-02T10:34:13.073Z,2.42
2023-04-02T10:37:08.321Z,2.00
2023-04-02T10:40:01.330Z,2.42
2023-04-02T10:43:03.483Z,2.45
2023-04-02T10:45:54.749Z,3.15
2023-04-02T10:49:23.662Z,2.08
2023-04-02T10:55:20.540Z,3.08
2023-04-02T10:58:23.725Z,2.90
2023-04-02T11:01:22.231Z,3.75
2023-04-02T11:04:17.673Z,3.40
2023-04-02T11:07:15.118Z,2.97
2023-04-02T11:10:02.135Z,2.83
2023-04-02T11:13:09.313Z,4.05
2023-04-02T11:15:56.424Z,4.22
2023-04-02T11:18:44.885Z,3.33
2023-04-02T11:22:00.223Z,3.90
2023-04-02T11:24:49.687Z,3.10
2023-04-02T11:27:36.736Z,4.00
2023-04-02T11:30:26.288Z,3.78
2023-04-02T11:33:44.779Z,2.30
2023-04-02T11:36:50.842Z,4.35
2023-04-02T11:39:56.728Z,2.78
2023-04-02T11:42:50.057Z,3.70
2023-04-02T11:45:52.974Z,2.47
2023-04-02T11:48:40.890Z,4.63
2023-04-02T11:51:31.247Z,3.63
2023-04-02T11:54:28.441Z,4.22
2023-04-02T11:57:33.310Z,3.15
2023-04-02T12:00:44.579Z,4.95
2023-04-02T12:03:55.816Z,4.50
2023-04-02T12:07:20.626Z,4.05
2023-04-02T12:10:19.178Z,4.45
2023-04-02T12:13:18.156Z,3.75
2023-04-02T12:16:06.698Z,4.22
2023-04-02T12:18:56.586Z,3.92
2023-04-02T12:21:47.338Z,4.68
2023-04-02T12:24:34.317Z,3.78
2023-04-02T12:27:27.714Z,3.88
2023-04-02T12:30:22.803Z,4.10
2023-04-02T12:33:16.771Z,3.38
2023-04-02T12:36:06.790Z,4.03
2023-04-02T12:38:58.171Z,2.80
2023-04-02T12:41:45.011Z,4.80
2023-04-02T12:44:32.600Z,3.95
2023-04-02T12:47:19.578Z,4.28
2023-04-02T12:50:07.265Z,5.30
2023-04-02T12:52:55.632Z,4.47
2023-04-02T12:55:47.444Z,5.30
2023-04-02T12:58:40.060Z,5.53
2023-04-02T13:01:29.383Z,4.70
2023-04-02T13:04:16.526Z,4.57
2023-04-02T13:07:03.558Z,4.68
2023-04-02T13:09:51.884Z,5.65
2023-04-02T13:12:40.473Z,4.38
2023-04-02T13:15:31.988Z,4.75
2023-04-02T13:18:23.048Z,4.75
2023-04-02T13:21:19.472Z,4.72
2023-04-02T13:24:16.945Z,4.82
2023-04-02T13:27:04.089Z,5.25
2023-04-02T13:29:51.049Z,5.32
2023-04-02T13:32:39.101Z,3.80
2023-04-02T13:35:27.250Z,4.50
2023-04-02T13:38:14.143Z,5.65
2023-04-02T13:41:01.085Z,5.88
2023-04-02T13:43:49.367Z,5.47
2023-04-02T13:46:36.292Z,5.60
2023-04-02T13:49:24.158Z,5.97
2023-04-02T13:52:14.997Z,5.57
2023-04-02T13:55:02.213Z,5.95
2023-04-02T13:57:50.374Z,5.95
2023-04-02T14:00:37.880Z,6.07
2023-04-02T14:03:24.881Z,5.65
2023-04-02T14:06:18.636Z,6.30
2023-04-02T14:09:15.703Z,5.40
2023-04-02T14:12:18.204Z,4.72
2023-04-02T14:15:27.478Z,5.35
2023-04-02T14:18:52.840Z,5.25
2023-04-02T14:21:57.913Z,5.53
2023-04-02T14:24:57.632Z,7.22
2023-04-02T14:28:06.446Z,5.60
2023-04-02T14:31:15.497Z,5.13
2023-04-02T14:36:56.355Z,4.87
2023-04-02T14:40:04.042Z,5.43
2023-04-02T14:43:01.394Z,4.53
2023-04-02T14:45:59.777Z,5.45
2023-04-02T14:48:54.385Z,6.00
2023-04-02T14:51:49.933Z,5.60
2023-04-02T14:54:39.612Z,5.43
2023-04-02T14:57:31.386Z,6.60
2023-04-02T15:00:31.785Z,5.47
2023-04-02T15:03:23.699Z,5.93
2023-04-02T15:06:13.096Z,5.65
2023-04-02T15:09:11.962Z,5.45
2023-04-02T15:12:11.148Z,5.00
2023-04-02T15:15:40.619Z,6.78
2023-04-02T15:18:27.984Z,5.38
2023-04-02T15:21:23.060Z,6.40
2023-04-02T15:24:39.287Z,6.03
2023-04-02T15:27:34.254Z,6.20
2023-04-02T15:30:37.311Z,5.57
2023-04-02T15:33:24.370Z,5.97
2023-04-02T15:36:32.629Z,5.80
2023-04-02T15:39:31.483Z,6.95
2023-04-02T15:42:44.091Z,5.88
2023-04-02T15:45:40.064Z,6.50
2023-04-02T15:48:33.048Z,6.03
2023-04-02T15:51:23.357Z,7.07
2023-04-02T15:54:16.488Z,5.25
2023-04-02T15:57:21.924Z,4.63
2023-04-02T16:00:22.245Z,5.93
2023-04-02T16:03:27.601Z,5.75
2023-04-02T16:06:25.301Z,5.35
2023-04-02T16:09:23.285Z,5.88
2023-04-02T16:12:20.648Z,6.63
2023-04-02T16:15:23.654Z,5.72
2023-04-02T16:18:33.696Z,5.75
2023-04-02T16:21:23.669Z,5.47
2023-04-02T16:24:13.349Z,5.80
2023-04-02T16:27:26.221Z,5.82
2023-04-02T16:30:30.004Z,5.50
2023-04-02T16:34:24.839Z,6.70
2023-04-02T16:37:41.995Z,6.05
2023-04-02T16:41:07.070Z,6.20
2023-04-02T16:44:15.352Z,6.05
2023-04-02T16:47:08.229Z,6.22
2023-04-02T16:50:13.411Z,6.28
2023-04-02T16:53:33.907Z,5.40
2023-04-02T16:56:39.436Z,5.82
2023-04-02T16:59:43.732Z,6.35
2023-04-02T17:02:46.067Z,5.97
2023-04-02T17:05:57.396Z,6.05
2023-04-02T17:09:13.762Z,6.50
2023-04-02T17:12:13.672Z,5.35
2023-04-02T17:15:20.905Z,8.07
2023-04-02T17:18:18.372Z,8.30
2023-04-02T17:21:08.531Z,7.63
2023-04-02T17:23:58.528Z,7.28
2023-04-02T17:26:48.662Z,6.55
2023-04-02T17:29:38.668Z,6.93
2023-04-02T17:32:36.902Z,6.97
2023-04-02T17:35:44.036Z,6.20
2023-04-02T17:39:03.333Z,6.60
2023-04-02T17:41:55.910Z,7.80
2023-04-02T17:44:54.940Z,6.40
2023-04-02T17:47:58.968Z,7.18
2023-04-02T17:50:54.612Z,7.18
2023-04-02T17:54:21.233Z,7.35
2023-04-02T17:57:31.254Z,7.28
2023-04-02T18:01:02.825Z,7.75
2023-04-02T18:04:08.246Z,6.97
2023-04-02T18:07:21.647Z,7.03
2023-04-02T18:10:27.390Z,7.32
2023-04-02T18:13:28.330Z,6.90
2023-04-02T18:16:30.487Z,7.45
2023-04-02T18:19:30.931Z,7.22
2023-04-02T18:22:46.716Z,8.38
2023-04-02T18:25:48.714Z,7.32
2023-04-02T18:29:06.500Z,7.18
2023-04-02T18:32:24.516Z,7.32
2023-04-02T18:35:33.601Z,8.13
2023-04-02T18:41:41.994Z,7.00
2023-04-02T18:44:49.094Z,6.72
2023-04-02T18:47:46.565Z,7.38
2023-04-02T18:50:39.361Z,7.38
2023-04-02T18:53:29.531Z,6.35
2023-04-02T18:56:19.739Z,7.75
2023-04-02T18:59:28.275Z,6.47
2023-04-02T19:02:27.324Z,7.10
2023-04-02T19:08:21.682Z,7.05
2023-04-02T19:11:14.568Z,7.43
2023-04-02T19:14:05.339Z,7.45
2023-04-02T19:17:06.120Z,7.20
2023-04-02T19:20:13.202Z,7.78
2023-04-02T19:23:29.887Z,7.55
2023-04-02T19:26:19.464Z,7.70
2023-04-02T19:29:24.447Z,6.82
2023-04-02T19:32:42.406Z,6.55
2023-04-02T19:35:35.625Z,7.00
2023-04-02T19:38:40.886Z,7.07
2023-04-02T19:41:49.931Z,7.55
2023-04-02T19:47:25.079Z,6.63
2023-04-02T19:50:11.966Z,6.70
2023-04-02T19:52:58.913Z,7.43
2023-04-02T19:55:46.101Z,7.38
2023-04-02T19:58:35.415Z,7.53
2023-04-02T20:01:22.339Z,7.70
2023-04-02T20:04:09.309Z,8.50
2023-04-02T20:06:56.228Z,6.60
2023-04-02T20:09:43.080Z,6.57
2023-04-02T20:12:29.911Z,7.00
2023-04-02T20:15:16.871Z,7.63
2023-04-02T20:18:04.577Z,6.70
2023-04-02T20:20:51.476Z,7.03
2023-04-02T20:23:38.319Z,8.05
2023-04-02T20:26:26.428Z,7.03
2023-04-02T20:29:13.276Z,6.88
2023-04-02T20:32:00.113Z,6.60
2023-04-02T20:34:47.125Z,7.65
2023-04-02T20:37:34.139Z,7.93
2023-04-02T20:40:21.293Z,6.60
2023-04-02T20:43:09.400Z,8.02
2023-04-02T20:45:57.971Z,7.47
2023-04-02T20:48:45.284Z,8.25
2023-04-02T20:51:32.429Z,7.55
2023-04-02T20:54:19.273Z,7.90
2023-04-02T20:57:06.270Z,6.78
2023-04-02T20:59:54.550Z,7.13
2023-04-02T21:02:41.436Z,7.50
2023-04-02T21:05:28.293Z,6.90
2023-04-02T21:08:15.145Z,7.05
2023-04-02T21:11:06.129Z,8.48
2023-04-02T21:13:53.501Z,7.22
2023-04-02T21:16:41.260Z,7.57
2023-04-02T21:19:28.148Z,7.45
2023-04-02T21:22:15.375Z,7.00
2023-04-02T21:25:02.255Z,6.80
2023-04-02T21:27:49.289Z,6.22
2023-04-02T21:30:36.369Z,6.78
2023-04-02T21:33:23.230Z,6.38
2023-04-02T21:36:19.001Z,6.45
2023-04-02T21:39:08.301Z,5.60
2023-04-02T21:44:42.258Z,6.57
2023-04-02T21:47:29.110Z,6.13
2023-04-02T21:50:16.039Z,7.13
2023-04-02T21:53:02.912Z,5.97
2023-04-02T21:55:49.755Z,6.53
2023-04-02T21:58:36.654Z,5.63
2023-04-02T22:01:28.036Z,6.50
2023-04-02T22:04:20.840Z,6.25
2023-04-02T22:07:07.783Z,6.85
2023-04-02T22:09:54.682Z,6.38
2023-04-02T22:12:41.846Z,6.25
2023-04-02T22:15:32.014Z,6.03
2023-04-02T22:18:18.847Z,6.05
2023-04-02T22:21:06.266Z,6.28
2023-04-02T22:23:53.470Z,5.82
2023-04-02T22:26:40.939Z,5.80
2023-04-02T22:29:27.972Z,5.88
2023-04-02T22:32:14.848Z,6.55
2023-04-02T22:35:01.911Z,5.53
2023-04-02T22:37:48.728Z,6.65
2023-04-02T22:40:36.084Z,5.80
2023-04-02T22:43:23.088Z,6.03
2023-04-02T22:46:11.230Z,6.03
2023-04-02T22:48:58.395Z,5.05
2023-04-02T22:51:45.706Z,5.80
2023-04-02T22:54:32.580Z,5.47
2023-04-02T22:57:19.720Z,6.05
2023-04-02T23:00:09.905Z,6.20
2023-04-02T23:02:56.789Z,6.60
2023-04-02T23:05:45.859Z,5.57
2023-04-02T23:08:33.770Z,4.45
2023-04-02T23:11:23.376Z,5.20
2023-04-02T23:14:10.317Z,5.90
2023-04-02T23:16:57.154Z,7.53
2023-04-02T23:19:44.034Z,4.70
2023-04-02T23:22:31.146Z,5.15
2023-04-02T23:25:18.008Z,7.07
2023-04-02T23:28:04.986Z,5.80
2023-04-02T23:30:52.437Z,5.93
2023-04-02T23:33:39.494Z,6.55
2023-04-02T23:36:28.778Z,5.50
2023-04-02T23:42:02.305Z,6.07
2023-04-02T23:44:49.428Z,5.35
2023-04-02T23:47:36.353Z,6.43
2023-04-02T23:50:23.321Z,6.32
2023-04-02T23:53:10.427Z,6.07
2023-04-02T23:55:57.402Z,6.32
2023-04-02T23:58:44.645Z,6.40
